Time;durP1;ratioP1;P1;durP2;ratioP2;P2;SDS_P1;SDS_P2;PMS_P1;PMS_P2;Temp;Humidity;BMP_temperature;BMP_pressure;BME280_temperature;BME280_humidity;BME280_pressure;Samples;Min_cycle;Max_cycle;Signal;HPM_P1;HPM_P2
2023/09/26 04:05:39;;;;;;;0.30;0.20;;;10.10;99.90;;;;;;5881858;22;20231;-64
2023/09/26 04:08:05;;;;;;;0.30;0.30;;;10.10;99.90;;;;;;5076953;28;20572;-64
2023/09/26 04:10:36;;;;;;;0.40;0.40;;;10.10;99.90;;;;;;5076334;28;20226;-64
2023/09/26 04:13:02;;;;;;;0.30;0.30;;;10.10;99.90;;;;;;5076323;28;20222;-64
2023/09/26 04:15:28;;;;;;;0.30;0.30;;;10.10;99.90;;;;;;5076404;28;20228;-64
2023/09/26 04:17:54;;;;;;;0.30;0.30;;;10.10;99.90;;;;;;5076829;28;20184;-64
2023/09/26 04:20:20;;;;;;;0.30;0.30;;;10.10;99.90;;;;;;5076772;28;20204;-64
2023/09/26 04:22:46;;;;;;;0.30;0.30;;;10.10;99.90;;;;;;5076804;28;20164;-63
2023/09/26 04:25:12;;;;;;;0.40;0.40;;;10.10;99.90;;;;;;5075900;28;20870;-64
2023/09/26 04:27:38;;;;;;;0.30;0.20;;;10.10;99.90;;;;;;5076601;28;20210;-63
2023/09/26 04:30:06;;;;;;;0.53;0.53;;;10.10;99.90;;;;;;5076556;28;20180;-64
2023/09/26 04:32:32;;;;;;;0.30;0.30;;;10.10;99.90;;;;;;5076977;28;20519;-63
2023/09/26 04:34:57;;;;;;;0.30;0.30;;;10.00;99.90;;;;;;5075178;28;20184;-64
2023/09/26 04:37:23;;;;;;;0.30;0.30;;;10.00;99.90;;;;;;5076080;28;20971;-65
2023/09/26 04:39:48;;;;;;;0.30;0.30;;;10.00;99.90;;;;;;5075845;28;20195;-65
2023/09/26 04:42:14;;;;;;;0.60;0.60;;;10.00;99.90;;;;;;5076257;28;20244;-65
2023/09/26 04:44:39;;;;;;;0.67;0.63;;;10.00;99.90;;;;;;5075811;28;20173;-65
2023/09/26 04:47:05;;;;;;;2.20;0.80;;;10.00;99.90;;;;;;5075958;28;20206;-64
2023/09/26 04:49:32;;;;;;;0.37;0.37;;;10.00;99.90;;;;;;5076178;28;20660;-65
2023/09/26 04:51:58;;;;;;;0.40;0.40;;;9.90;99.90;;;;;;5075993;28;20642;-65
2023/09/26 04:54:24;;;;;;;0.30;0.30;;;10.00;99.90;;;;;;5075300;28;20179;-65
2023/09/26 04:56:49;;;;;;;0.30;0.30;;;10.00;99.90;;;;;;5074754;28;20639;-65
2023/09/26 04:59:15;;;;;;;0.60;0.60;;;9.90;99.90;;;;;;5075829;28;20208;-65
2023/09/26 05:01:40;;;;;;;0.30;0.30;;;9.90;99.90;;;;;;5075856;28;20231;-65
2023/09/26 05:04:06;;;;;;;0.40;0.40;;;9.90;99.90;;;;;;5075551;28;20173;-66
2023/09/26 05:06:32;;;;;;;0.40;0.40;;;9.90;99.90;;;;;;5074795;28;20325;-62
2023/09/26 05:08:58;;;;;;;0.30;0.30;;;9.80;99.90;;;;;;5075769;28;20241;-66
2023/09/26 05:11:23;;;;;;;0.30;0.20;;;9.80;99.90;;;;;;5074541;28;20165;-66
2023/09/26 05:13:49;;;;;;;0.30;0.30;;;9.80;99.90;;;;;;5075288;28;20172;-65
2023/09/26 05:16:14;;;;;;;0.30;0.30;;;9.80;99.90;;;;;;5075492;28;20180;-64
2023/09/26 05:18:40;;;;;;;0.50;0.50;;;9.80;99.90;;;;;;5075621;28;20621;-65
2023/09/26 05:21:07;;;;;;;0.40;0.40;;;9.70;99.90;;;;;;5075236;28;20196;-64
2023/09/26 05:23:32;;;;;;;0.35;0.35;;;9.70;99.90;;;;;;5075527;28;20284;-64
2023/09/26 05:26:10;;;;;;;0.30;0.30;;;9.80;99.90;;;;;;5075024;28;20228;-64
2023/09/26 05:28:35;;;;;;;0.30;0.30;;;9.80;99.90;;;;;;5075407;28;20407;-64
2023/09/26 05:31:01;;;;;;;1.50;0.60;;;9.80;99.90;;;;;;5075086;28;20583;-67
2023/09/26 05:33:27;;;;;;;0.30;0.30;;;9.80;99.90;;;;;;5075127;28;20629;-66
2023/09/26 05:35:54;;;;;;;0.30;0.30;;;9.80;99.90;;;;;;5074847;28;20242;-66
2023/09/26 05:38:20;;;;;;;0.30;0.30;;;9.90;99.90;;;;;;5073856;28;20170;-67
2023/09/26 05:40:50;;;;;;;0.30;0.30;;;9.90;99.90;;;;;;5075051;28;20589;-66
2023/09/26 05:43:15;;;;;;;0.35;0.35;;;10.00;99.90;;;;;;5075214;28;20260;-66
2023/09/26 05:45:41;;;;;;;0.30;0.30;;;10.10;99.90;;;;;;5074178;28;20283;-65
2023/09/26 05:48:06;;;;;;;0.40;0.40;;;10.10;99.90;;;;;;5074895;28;20181;-66
2023/09/26 05:50:32;;;;;;;0.90;0.90;;;10.20;99.90;;;;;;5074697;28;20183;-66
2023/09/26 05:52:59;;;;;;;0.30;0.30;;;10.30;99.90;;;;;;5074928;28;20252;-63
2023/09/26 05:55:25;;;;;;;0.40;0.40;;;10.30;99.90;;;;;;5074245;28;20796;-64
2023/09/26 05:57:50;;;;;;;0.30;0.30;;;10.40;99.90;;;;;;5074694;28;20181;-64
2023/09/26 06:00:16;;;;;;;0.30;0.30;;;10.50;99.90;;;;;;5054536;28;20208;-64
2023/09/26 06:02:43;;;;;;;0.30;0.30;;;10.50;99.90;;;;;;5054760;28;20692;-64
2023/09/26 06:05:11;;;;;;;0.50;0.50;;;10.60;99.90;;;;;;5054160;28;20465;-66
2023/09/26 06:07:37;;;;;;;0.30;0.30;;;10.70;99.90;;;;;;5054472;28;20265;-64
2023/09/26 06:10:03;;;;;;;0.65;0.65;;;10.90;99.90;;;;;;5054381;28;20176;-64
2023/09/26 06:12:30;;;;;;;0.40;0.40;;;11.00;99.90;;;;;;5054670;28;20178;-64
2023/09/26 06:14:56;;;;;;;0.30;0.30;;;11.00;99.90;;;;;;5073186;28;20209;-64
2023/09/26 06:17:21;;;;;;;0.30;0.30;;;11.10;99.90;;;;;;5073648;28;20180;-64
2023/09/26 06:19:47;;;;;;;0.30;0.30;;;11.20;99.90;;;;;;5074347;28;20660;-64
2023/09/26 06:22:13;;;;;;;0.50;0.50;;;11.30;99.90;;;;;;5073923;28;20203;-65
2023/09/26 06:24:39;;;;;;;1.03;1.03;;;11.40;99.90;;;;;;5074310;28;20177;-64
2023/09/26 06:27:04;;;;;;;0.30;0.30;;;11.50;99.90;;;;;;5074111;28;20400;-64
2023/09/26 06:29:30;;;;;;;0.30;0.30;;;11.50;99.90;;;;;;5073890;28;20186;-63
2023/09/26 06:31:56;;;;;;;0.93;0.53;;;11.60;99.90;;;;;;5074171;28;20174;-65
2023/09/26 06:34:21;;;;;;;0.30;0.30;;;11.80;99.90;;;;;;5073744;28;20178;-63
2023/09/26 06:36:50;;;;;;;0.47;0.47;;;11.90;99.90;;;;;;5074116;28;20222;-64
2023/09/26 06:39:15;;;;;;;0.30;0.20;;;12.10;99.90;;;;;;5073852;28;20209;-65
2023/09/26 06:41:41;;;;;;;0.60;0.60;;;12.20;99.90;;;;;;5074123;28;20418;-65
2023/09/26 06:44:09;;;;;;;0.30;0.30;;;12.20;99.90;;;;;;5073295;28;20176;-65
2023/09/26 06:46:35;;;;;;;0.43;0.43;;;12.40;99.90;;;;;;5072394;28;20206;-65
2023/09/26 06:49:01;;;;;;;0.40;0.40;;;12.70;99.90;;;;;;5074012;28;20423;-65
2023/09/26 06:51:27;;;;;;;0.57;0.57;;;12.80;99.90;;;;;;5073873;28;20811;-65
2023/09/26 06:53:52;;;;;;;0.43;0.43;;;13.00;99.90;;;;;;5073753;28;20272;-66
2023/09/26 06:56:18;;;;;;;0.30;0.20;;;13.20;99.90;;;;;;5073672;28;20216;-65
2023/09/26 06:58:43;;;;;;;0.47;0.47;;;13.50;99.90;;;;;;5073408;28;20188;-66
2023/09/26 07:01:14;;;;;;;1.23;0.47;;;13.90;99.90;;;;;;5073762;28;20217;-65
2023/09/26 07:03:41;;;;;;;0.30;0.30;;;14.20;99.90;;;;;;5073040;28;20286;-65
2023/09/26 07:06:11;;;;;;;0.30;0.30;;;14.90;99.90;;;;;;5072838;28;20453;-65
2023/09/26 07:08:38;;;;;;;0.30;0.30;;;15.80;99.90;;;;;;5073618;28;20413;-65
2023/09/26 07:11:05;;;;;;;0.77;0.77;;;16.70;99.90;;;;;;5072784;28;20442;-65
2023/09/26 07:13:31;;;;;;;0.53;0.53;;;17.90;99.90;;;;;;5073469;28;20422;-67
2023/09/26 07:16:00;;;;;;;0.30;0.30;;;18.70;99.90;;;;;;5073039;28;20944;-66
2023/09/26 07:18:26;;;;;;;0.40;0.40;;;19.30;99.90;;;;;;5073498;28;20173;-66
2023/09/26 07:20:52;;;;;;;0.30;0.20;;;19.30;99.90;;;;;;5073423;28;20960;-66
2023/09/26 07:23:17;;;;;;;0.60;0.60;;;19.10;99.90;;;;;;5073579;28;20222;-66
2023/09/26 07:25:43;;;;;;;0.30;0.30;;;18.60;99.90;;;;;;5072794;28;20205;-67
2023/09/26 07:28:09;;;;;;;0.40;0.37;;;18.20;99.90;;;;;;5073357;28;20181;-64
2023/09/26 07:30:34;;;;;;;0.40;0.30;;;17.80;99.90;;;;;;5071975;28;20188;-67
2023/09/26 07:33:00;;;;;;;0.30;0.30;;;17.70;99.90;;;;;;5073441;28;20538;-67
2023/09/26 07:35:27;;;;;;;0.30;0.20;;;17.60;99.90;;;;;;5071987;28;20208;-67
2023/09/26 07:37:57;;;;;;;0.40;0.40;;;17.80;99.90;;;;;;5072871;28;20403;-65
2023/09/26 07:40:23;;;;;;;0.30;0.30;;;18.30;99.90;;;;;;5073097;28;20430;-65
2023/09/26 07:42:49;;;;;;;0.30;0.30;;;18.90;99.90;;;;;;5073339;28;20719;-66
2023/09/26 07:45:16;;;;;;;0.40;0.40;;;19.80;99.90;;;;;;5072712;28;20196;-66
2023/09/26 07:47:43;;;;;;;0.50;0.50;;;20.60;99.90;;;;;;5073110;28;20204;-66
2023/09/26 07:50:09;;;;;;;0.37;0.37;;;21.50;99.90;;;;;;5072948;28;20717;-67
2023/09/26 07:52:34;;;;;;;0.50;0.40;;;22.30;99.90;;;;;;5073016;28;20400;-67
2023/09/26 07:55:00;;;;;;;0.40;0.30;;;23.20;98.20;;;;;;5072687;28;20275;-68
2023/09/26 07:57:26;;;;;;;0.30;0.30;;;24.00;97.10;;;;;;5073119;28;20964;-66
2023/09/26 07:59:51;;;;;;;0.70;0.70;;;24.70;96.60;;;;;;5073093;28;20230;-67
2023/09/26 08:02:17;;;;;;;0.70;0.60;;;25.40;95.20;;;;;;5072807;28;20254;-67
2023/09/26 08:04:42;;;;;;;0.60;0.60;;;26.00;93.50;;;;;;5072424;28;20173;-66
2023/09/26 08:07:08;;;;;;;0.67;0.67;;;26.50;93.10;;;;;;5072622;28;20251;-66
2023/09/26 08:09:34;;;;;;;0.40;0.40;;;27.10;92.10;;;;;;5072811;28;20176;-66
2023/09/26 08:11:59;;;;;;;0.30;0.30;;;27.60;90.80;;;;;;5072582;28;20646;-65
2023/09/26 08:14:25;;;;;;;0.40;0.40;;;28.20;89.30;;;;;;5072387;28;20268;-62
2023/09/26 08:16:51;;;;;;;0.90;0.53;;;28.60;89.00;;;;;;5072816;28;20177;-65
2023/09/26 08:19:16;;;;;;;0.53;0.53;;;28.70;86.00;;;;;;5072487;28;20290;-66
2023/09/26 08:21:44;;;;;;;0.57;0.53;;;28.80;86.20;;;;;;5065656;28;20184;-65
2023/09/26 08:24:10;;;;;;;0.60;0.60;;;29.10;85.40;;;;;;5052221;28;20216;-65
2023/09/26 08:26:36;;;;;;;0.40;0.40;;;29.50;82.80;;;;;;5064201;28;20493;-65
2023/09/26 08:29:01;;;;;;;0.70;0.50;;;29.50;82.00;;;;;;5071191;28;20177;-65
2023/09/26 08:31:27;;;;;;;1.03;1.03;;;29.60;82.30;;;;;;5072659;28;20619;-65
2023/09/26 08:33:53;;;;;;;0.50;0.50;;;29.80;81.60;;;;;;5072325;28;20228;-67
2023/09/26 08:36:20;;;;;;;0.50;0.50;;;30.30;78.60;;;;;;5072818;28;20219;-65
2023/09/26 08:38:48;;;;;;;0.40;0.40;;;30.60;78.70;;;;;;5072687;28;20784;-66
2023/09/26 08:41:19;;;;;;;0.37;0.37;;;30.70;78.40;;;;;;5072370;28;20848;-65
2023/09/26 08:43:45;;;;;;;0.60;0.60;;;30.90;77.10;;;;;;5072279;28;20480;-65
2023/09/26 08:46:11;;;;;;;0.77;0.77;;;31.10;76.80;;;;;;5073952;28;20431;-66
2023/09/26 08:48:39;;;;;;;0.40;0.40;;;31.50;76.10;;;;;;5076204;28;20445;-67
2023/09/26 08:51:05;;;;;;;0.83;0.83;;;32.10;74.40;;;;;;5076064;28;20467;-65
2023/09/26 08:53:31;;;;;;;0.80;0.80;;;32.40;73.60;;;;;;5076122;28;20411;-66
2023/09/26 08:55:57;;;;;;;0.63;0.63;;;32.70;71.60;;;;;;5073964;28;20968;-65
2023/09/26 08:58:25;;;;;;;0.60;0.60;;;33.00;71.20;;;;;;5075784;28;20780;-66
2023/09/26 09:00:51;;;;;;;0.70;0.70;;;33.10;70.00;;;;;;5075687;28;20447;-65
2023/09/26 09:03:16;;;;;;;0.67;0.40;;;32.80;69.80;;;;;;5075828;28;20419;-66
2023/09/26 09:05:42;;;;;;;0.83;0.83;;;32.60;70.60;;;;;;5075222;28;20272;-66
2023/09/26 09:08:15;;;;;;;0.90;0.90;;;32.40;70.50;;;;;;5075828;28;20181;-64
2023/09/26 09:10:54;;;;;;;1.43;1.30;;;32.40;71.00;;;;;;5075546;28;20439;-65
2023/09/26 09:13:33;;;;;;;0.40;0.40;;;32.40;71.00;;;;;;5075674;28;20386;-66
2023/09/26 09:16:18;;;;;;;1.73;1.20;;;32.40;71.10;;;;;;5075123;28;20446;-64
2023/09/26 09:18:50;;;;;;;0.50;0.50;;;32.60;69.90;;;;;;5075574;28;20454;-66
2023/09/26 09:21:24;;;;;;;0.60;0.60;;;32.80;69.90;;;;;;5074457;28;20459;-66
2023/09/26 09:23:52;;;;;;;1.40;1.30;;;32.80;68.90;;;;;;5074958;28;20427;-64
2023/09/26 09:26:19;;;;;;;0.50;0.50;;;32.80;68.70;;;;;;5074899;28;20439;-64
2023/09/26 09:28:46;;;;;;;0.50;0.50;;;32.40;69.20;;;;;;5075613;28;20438;-65
2023/09/26 09:31:15;;;;;;;0.50;0.50;;;32.50;70.40;;;;;;5075444;28;20417;-65
2023/09/26 09:33:52;;;;;;;0.70;0.70;;;32.70;70.30;;;;;;5074774;28;20768;-66
2023/09/26 09:36:18;;;;;;;0.73;0.70;;;33.10;69.20;;;;;;5075221;28;20533;-64
2023/09/26 09:38:44;;;;;;;0.73;0.73;;;33.50;67.60;;;;;;5075106;28;20414;-66
2023/09/26 09:41:10;;;;;;;0.60;0.60;;;33.80;67.10;;;;;;5074953;28;20458;-65
2023/09/26 09:43:37;;;;;;;0.60;0.60;;;33.60;66.90;;;;;;5075202;28;20196;-66
2023/09/26 09:46:10;;;;;;;0.50;0.50;;;33.50;67.40;;;;;;5074971;28;20239;-65
2023/09/26 09:48:44;;;;;;;0.70;0.70;;;33.60;67.50;;;;;;5073163;28;20502;-65
2023/09/26 09:51:14;;;;;;;0.60;0.50;;;33.80;65.80;;;;;;5074446;28;20416;-66
2023/09/26 09:53:52;;;;;;;0.87;0.87;;;34.00;65.50;;;;;;5074488;28;20390;-67
2023/09/26 09:56:19;;;;;;;0.40;0.40;;;33.80;65.60;;;;;;5075040;28;20401;-67
2023/09/26 09:58:49;;;;;;;0.77;0.77;;;33.60;65.90;;;;;;5074010;28;20410;-68
2023/09/26 10:01:19;;;;;;;1.07;1.07;;;33.50;66.20;;;;;;5074696;28;20462;-67
2023/09/26 10:03:46;;;;;;;0.40;0.40;;;33.10;66.70;;;;;;5073694;28;20552;-66
2023/09/26 10:06:12;;;;;;;0.47;0.47;;;32.80;67.80;;;;;;5074278;28;20862;-68
2023/09/26 10:08:41;;;;;;;0.60;0.60;;;32.50;68.10;;;;;;5074614;28;20890;-69
2023/09/26 10:11:08;;;;;;;0.60;0.60;;;32.10;69.00;;;;;;5074229;28;20466;-68
2023/09/26 10:13:35;;;;;;;1.67;1.07;;;31.80;70.10;;;;;;5074274;28;20421;-69
2023/09/26 10:16:11;;;;;;;0.70;0.70;;;31.80;70.10;;;;;;5073887;28;20427;-69
2023/09/26 10:18:40;;;;;;;0.80;0.80;;;31.80;70.60;;;;;;5074009;28;20419;-67
2023/09/26 10:21:25;;;;;;;0.60;0.60;;;31.50;70.70;;;;;;5074469;28;20414;-65
2023/09/26 10:24:06;;;;;;;0.50;0.50;;;31.40;72.10;;;;;;5073740;28;20411;-66
2023/09/26 10:26:33;;;;;;;0.40;0.40;;;31.50;71.30;;;;;;5073808;28;20956;-65
2023/09/26 10:29:11;;;;;;;0.53;0.53;;;31.20;73.10;;;;;;5074059;28;20407;-69
2023/09/26 10:31:41;;;;;;;0.50;0.50;;;31.10;73.90;;;;;;5074174;28;20396;-68
2023/09/26 10:34:07;;;;;;;0.47;0.47;;;31.00;73.20;;;;;;5072235;28;20909;-68
2023/09/26 10:36:37;;;;;;;0.40;0.30;;;31.00;73.00;;;;;;5074098;28;20531;-69
2023/09/26 10:39:05;;;;;;;0.37;0.37;;;31.10;72.90;;;;;;5073584;28;20765;-69
2023/09/26 10:41:32;;;;;;;0.60;0.60;;;31.10;72.80;;;;;;5074041;28;20430;-67
2023/09/26 10:43:58;;;;;;;0.40;0.40;;;31.10;72.70;;;;;;5073634;28;20503;-69
2023/09/26 10:46:23;;;;;;;0.50;0.50;;;30.70;74.00;;;;;;5073954;28;20406;-67
2023/09/26 10:48:49;;;;;;;0.50;0.50;;;30.50;72.30;;;;;;5073583;28;20412;-68
2023/09/26 10:51:17;;;;;;;0.73;0.73;;;30.50;71.90;;;;;;5073816;28;20277;-66
2023/09/26 10:53:44;;;;;;;0.67;0.43;;;30.60;72.50;;;;;;5073710;28;20176;-69
2023/09/26 10:56:10;;;;;;;0.47;0.40;;;30.30;73.80;;;;;;5073681;28;20398;-67
2023/09/26 10:58:36;;;;;;;0.40;0.40;;;30.20;74.40;;;;;;5073818;28;20390;-68
2023/09/26 11:01:02;;;;;;;0.47;0.47;;;30.10;76.10;;;;;;5073675;28;20721;-65
2023/09/26 11:03:30;;;;;;;0.70;0.70;;;30.10;76.10;;;;;;5073286;28;20271;-67
2023/09/26 11:05:57;;;;;;;0.50;0.50;;;29.70;73.70;;;;;;5073013;28;20208;-65
2023/09/26 11:08:23;;;;;;;0.60;0.60;;;29.00;73.60;;;;;;5073649;28;20385;-65
2023/09/26 11:10:49;;;;;;;0.40;0.40;;;28.30;77.10;;;;;;5072266;28;20986;-65
2023/09/26 11:13:16;;;;;;;0.50;0.50;;;27.60;79.50;;;;;;5073634;28;20519;-66
2023/09/26 11:15:45;;;;;;;1.40;1.40;;;27.00;80.90;;;;;;5073039;28;20193;-64
2023/09/26 11:18:13;;;;;;;0.40;0.40;;;26.40;81.70;;;;;;5073183;28;20400;-65
2023/09/26 11:20:40;;;;;;;0.30;0.20;;;25.90;82.70;;;;;;5073381;28;20411;-65
2023/09/26 11:23:07;;;;;;;0.40;0.40;;;25.60;85.50;;;;;;5073462;28;20749;-65
2023/09/26 11:25:33;;;;;;;0.40;0.40;;;25.10;88.00;;;;;;5073116;28;20520;-64
2023/09/26 11:27:58;;;;;;;0.30;0.30;;;24.80;87.50;;;;;;5073606;28;20877;-63
2023/09/26 11:30:24;;;;;;;0.30;0.30;;;24.70;88.20;;;;;;5073543;28;20716;-66
2023/09/26 11:32:54;;;;;;;0.90;0.50;;;24.70;87.40;;;;;;5073033;28;20180;-64
2023/09/26 11:35:21;;;;;;;0.30;0.30;;;24.40;87.30;;;;;;5072980;28;20538;-65
2023/09/26 11:37:51;;;;;;;0.60;0.60;;;24.20;89.30;;;;;;5073223;28;20418;-63
2023/09/26 11:40:27;;;;;;;0.30;0.30;;;24.00;90.10;;;;;;5073282;28;20773;-63
2023/09/26 11:42:55;;;;;;;0.33;0.33;;;23.80;91.40;;;;;;5073245;28;20408;-64
2023/09/26 11:45:26;;;;;;;0.40;0.37;;;23.70;90.80;;;;;;5072720;28;20434;-66
2023/09/26 11:47:58;;;;;;;0.30;0.30;;;23.60;91.10;;;;;;5072715;28;20472;-64
2023/09/26 11:50:24;;;;;;;0.30;0.20;;;23.60;91.20;;;;;;5073035;28;20530;-65
2023/09/26 11:52:50;;;;;;;0.50;0.50;;;23.50;91.50;;;;;;5073270;28;20482;-65
2023/09/26 11:55:17;;;;;;;0.30;0.30;;;23.50;91.20;;;;;;5072684;28;20426;-65
2023/09/26 11:57:44;;;;;;;0.30;0.30;;;23.50;91.30;;;;;;5072703;28;20407;-64
2023/09/26 12:00:15;;;;;;;0.40;0.40;;;23.40;91.00;;;;;;5073111;28;20399;-64
2023/09/26 12:02:43;;;;;;;0.30;0.30;;;23.50;90.70;;;;;;5072864;28;20415;-64
2023/09/26 12:05:09;;;;;;;0.30;0.20;;;23.50;91.70;;;;;;5071295;28;20423;-65
2023/09/26 12:07:35;;;;;;;0.30;0.20;;;23.50;91.50;;;;;;5072777;28;20442;-64
2023/09/26 12:10:01;;;;;;;0.40;0.40;;;23.60;91.40;;;;;;5072820;28;20454;-64
2023/09/26 12:12:27;;;;;;;0.30;0.30;;;23.60;91.20;;;;;;5073044;28;20180;-64
2023/09/26 12:15:22;;;;;;;0.30;0.27;;;23.50;91.20;;;;;;5072646;28;20203;-67
2023/09/26 12:17:48;;;;;;;0.30;0.30;;;23.50;91.80;;;;;;5070577;28;20601;-65
2023/09/26 12:20:21;;;;;;;0.30;0.30;;;23.50;91.50;;;;;;5071736;28;20438;-66
2023/09/26 12:22:51;;;;;;;0.30;0.20;;;23.50;91.10;;;;;;5076594;28;20487;-65
2023/09/26 12:25:18;;;;;;;0.30;0.20;;;23.50;90.50;;;;;;5076123;28;20427;-69
2023/09/26 12:27:44;;;;;;;0.30;0.27;;;23.60;90.20;;;;;;5076680;28;20392;-66
2023/09/26 12:30:10;;;;;;;0.60;0.60;;;23.60;90.60;;;;;;5076106;28;20462;-67
2023/09/26 12:32:36;;;;;;;0.30;0.30;;;23.60;90.60;;;;;;5075477;28;20899;-67
2023/09/26 12:35:05;;;;;;;0.30;0.30;;;23.60;90.50;;;;;;5075843;28;20401;-69
2023/09/26 12:37:30;;;;;;;0.63;0.53;;;23.60;90.30;;;;;;5076121;28;20714;-65
2023/09/26 12:39:56;;;;;;;0.40;0.37;;;23.60;90.30;;;;;;5076324;28;20446;-69
2023/09/26 12:42:22;;;;;;;0.33;0.30;;;23.70;90.60;;;;;;5075127;28;20178;-64
2023/09/26 12:44:47;;;;;;;0.30;0.30;;;23.70;90.70;;;;;;5075503;28;20265;-68
2023/09/26 12:47:13;;;;;;;0.40;0.30;;;23.60;90.70;;;;;;5076133;28;20255;-65
2023/09/26 12:49:39;;;;;;;0.30;0.20;;;23.70;90.30;;;;;;5076049;28;20201;-68
2023/09/26 12:52:05;;;;;;;0.30;0.20;;;23.60;90.50;;;;;;5076342;28;20386;-67
2023/09/26 12:54:31;;;;;;;0.43;0.43;;;23.60;90.80;;;;;;5075601;28;20535;-66
2023/09/26 12:57:01;;;;;;;0.30;0.20;;;23.50;91.10;;;;;;5075469;28;20247;-67
2023/09/26 12:59:27;;;;;;;0.30;0.20;;;23.60;90.60;;;;;;5075594;28;20421;-67
2023/09/26 13:01:55;;;;;;;0.30;0.20;;;23.60;90.20;;;;;;5075658;28;20418;-68
2023/09/26 13:04:22;;;;;;;0.43;0.43;;;23.60;90.50;;;;;;5075279;28;20398;-64
2023/09/26 13:06:48;;;;;;;0.30;0.27;;;23.60;90.50;;;;;;5075570;28;20535;-68
2023/09/26 13:09:14;;;;;;;1.30;1.30;;;23.70;90.80;;;;;;5075607;28;20466;-66
2023/09/26 13:11:40;;;;;;;0.40;0.40;;;23.80;90.80;;;;;;5075963;28;20255;-70
2023/09/26 13:14:05;;;;;;;0.50;0.30;;;23.90;90.70;;;;;;5075131;28;20510;-65
2023/09/26 13:16:32;;;;;;;0.30;0.20;;;24.00;89.80;;;;;;5075414;28;20198;-65
2023/09/26 13:18:59;;;;;;;0.30;0.20;;;23.90;88.70;;;;;;5075566;28;20173;-65
2023/09/26 13:21:26;;;;;;;0.40;0.30;;;23.90;90.10;;;;;;5075715;28;20407;-68
2023/09/26 13:23:53;;;;;;;0.30;0.23;;;24.00;89.90;;;;;;5075109;28;20381;-67
2023/09/26 13:26:18;;;;;;;0.90;0.90;;;24.00;89.60;;;;;;5075477;28;20445;-66
2023/09/26 13:28:44;;;;;;;0.30;0.20;;;24.00;89.40;;;;;;5074948;28;20511;-66
2023/09/26 13:31:10;;;;;;;0.30;0.20;;;24.00;89.10;;;;;;5075520;28;20208;-65
2023/09/26 13:33:35;;;;;;;1.17;0.73;;;24.00;88.30;;;;;;5074260;28;20176;-66
2023/09/26 13:36:01;;;;;;;0.30;0.20;;;24.00;88.30;;;;;;5073492;28;20203;-66
2023/09/26 13:38:27;;;;;;;0.30;0.20;;;24.00;88.70;;;;;;5075229;28;20252;-68
2023/09/26 13:40:53;;;;;;;0.50;0.40;;;23.90;88.20;;;;;;5074785;28;20395;-65
2023/09/26 13:43:18;;;;;;;0.30;0.30;;;23.90;88.20;;;;;;5075167;28;20184;-68
2023/09/26 13:45:44;;;;;;;0.30;0.20;;;23.90;88.00;;;;;;5074691;28;20227;-66
2023/09/26 13:48:09;;;;;;;0.40;0.40;;;23.90;88.30;;;;;;5075082;28;20606;-67
2023/09/26 13:50:35;;;;;;;0.30;0.30;;;24.00;88.50;;;;;;5074731;28;20287;-65
2023/09/26 13:53:00;;;;;;;0.30;0.20;;;24.00;87.90;;;;;;5074907;28;20172;-66
2023/09/26 13:55:26;;;;;;;0.40;0.40;;;24.00;87.70;;;;;;5074231;28;20204;-67
2023/09/26 13:57:52;;;;;;;0.30;0.30;;;24.00;88.00;;;;;;5075089;28;20173;-65
2023/09/26 14:00:17;;;;;;;0.30;0.30;;;24.00;89.30;;;;;;5074855;28;20252;-69
2023/09/26 14:02:43;;;;;;;0.40;0.40;;;24.00;89.50;;;;;;5074790;28;20223;-66
2023/09/26 14:05:09;;;;;;;0.30;0.30;;;24.00;87.60;;;;;;5072540;28;20211;-69
2023/09/26 14:07:34;;;;;;;0.30;0.30;;;24.00;86.90;;;;;;5074429;28;20230;-66
2023/09/26 14:10:00;;;;;;;0.43;0.40;;;24.00;86.60;;;;;;5074422;28;20581;-70
2023/09/26 14:12:26;;;;;;;0.30;0.20;;;24.00;86.50;;;;;;5074596;28;20169;-65
2023/09/26 14:14:52;;;;;;;0.30;0.30;;;24.00;85.20;;;;;;5073992;28;20194;-68
2023/09/26 14:17:17;;;;;;;0.30;0.30;;;24.10;84.50;;;;;;5074389;28;20381;-67
2023/09/26 14:19:43;;;;;;;0.40;0.40;;;24.10;84.90;;;;;;5073755;28;20187;-67
2023/09/26 14:22:09;;;;;;;0.30;0.30;;;24.10;84.60;;;;;;5074212;28;20177;-68
2023/09/26 14:24:34;;;;;;;0.30;0.30;;;24.10;84.80;;;;;;5073687;28;20185;-66
2023/09/26 14:27:00;;;;;;;0.30;0.30;;;24.10;85.00;;;;;;5074150;28;20653;-68
2023/09/26 14:29:31;;;;;;;0.30;0.20;;;24.10;85.60;;;;;;5074190;28;20183;-66
2023/09/26 14:31:57;;;;;;;0.30;0.27;;;24.10;84.50;;;;;;5074200;28;20491;-68
2023/09/26 14:34:23;;;;;;;0.30;0.30;;;24.10;84.50;;;;;;5071949;28;20506;-64
2023/09/26 14:36:48;;;;;;;0.40;0.30;;;24.10;85.00;;;;;;5073986;28;20189;-67
2023/09/26 14:39:14;;;;;;;0.30;0.20;;;24.10;86.30;;;;;;5073961;28;20169;-66
2023/09/26 14:41:40;;;;;;;0.30;0.30;;;24.00;87.20;;;;;;5073760;28;20646;-67
2023/09/26 14:44:06;;;;;;;0.30;0.20;;;24.00;87.50;;;;;;5072842;28;20961;-63
2023/09/26 14:46:33;;;;;;;0.30;0.30;;;24.00;88.00;;;;;;5074091;28;20246;-67
2023/09/26 14:48:59;;;;;;;1.00;1.00;;;24.00;86.90;;;;;;5073741;28;20480;-65
2023/09/26 14:51:25;;;;;;;0.30;0.20;;;24.00;87.80;;;;;;5073545;28;20445;-68
2023/09/26 14:53:50;;;;;;;0.30;0.30;;;24.00;87.90;;;;;;5073272;28;20207;-65
2023/09/26 14:56:18;;;;;;;0.30;0.20;;;23.90;87.80;;;;;;5073699;28;20216;-66
2023/09/26 14:58:45;;;;;;;0.30;0.30;;;23.90;88.40;;;;;;5073787;28;20316;-68
2023/09/26 15:01:11;;;;;;;0.30;0.20;;;23.80;88.70;;;;;;5073706;28;20415;-64
2023/09/26 15:03:37;;;;;;;0.40;0.30;;;23.80;88.50;;;;;;5073042;28;20422;-68
2023/09/26 15:06:03;;;;;;;0.40;0.40;;;23.80;89.30;;;;;;5073289;28;20714;-66
2023/09/26 15:08:28;;;;;;;0.30;0.30;;;23.70;90.00;;;;;;5073519;28;20403;-67
2023/09/26 15:10:54;;;;;;;0.50;0.50;;;23.70;90.00;;;;;;5073307;28;20456;-66
2023/09/26 15:13:20;;;;;;;0.30;0.27;;;23.70;90.00;;;;;;5073439;28;20252;-68
2023/09/26 15:15:46;;;;;;;0.40;0.40;;;23.60;90.10;;;;;;5073051;28;20185;-65
2023/09/26 15:18:12;;;;;;;0.30;0.30;;;23.60;90.10;;;;;;5073201;28;20418;-67
2023/09/26 15:20:38;;;;;;;0.30;0.20;;;23.60;90.10;;;;;;5073570;28;20182;-65
2023/09/26 15:23:04;;;;;;;0.30;0.20;;;23.50;90.20;;;;;;5073490;28;20176;-67
2023/09/26 15:25:29;;;;;;;0.40;0.30;;;23.40;90.00;;;;;;5071722;28;20416;-64
2023/09/26 15:27:55;;;;;;;0.40;0.40;;;23.50;89.90;;;;;;5072037;28;20913;-67
2023/09/26 15:30:21;;;;;;;0.30;0.30;;;23.40;89.50;;;;;;5073320;28;20705;-66
2023/09/26 15:32:46;;;;;;;0.30;0.20;;;23.40;89.60;;;;;;5072984;28;20178;-64
2023/09/26 15:35:12;;;;;;;0.30;0.30;;;23.40;89.40;;;;;;5072737;28;20231;-66
2023/09/26 15:37:38;;;;;;;0.30;0.20;;;23.30;89.30;;;;;;5073244;28;20407;-66
2023/09/26 15:40:06;;;;;;;0.30;0.20;;;23.30;89.20;;;;;;5072122;28;20173;-67
2023/09/26 15:42:34;;;;;;;0.30;0.20;;;23.30;89.50;;;;;;5072025;28;20663;-65
2023/09/26 15:45:01;;;;;;;0.30;0.20;;;23.20;89.30;;;;;;5072858;28;20785;-67
2023/09/26 15:47:27;;;;;;;0.30;0.30;;;23.20;89.70;;;;;;5072942;28;20450;-65
2023/09/26 15:49:53;;;;;;;0.30;0.20;;;23.10;90.00;;;;;;5072879;28;20486;-66
2023/09/26 15:52:18;;;;;;;0.30;0.20;;;23.10;90.00;;;;;;5073160;28;20239;-66
2023/09/26 15:54:44;;;;;;;0.30;0.20;;;23.10;89.80;;;;;;5072666;28;20187;-67
2023/09/26 15:57:10;;;;;;;0.30;0.30;;;23.10;90.00;;;;;;5076401;28;20180;-67
2023/09/26 15:59:35;;;;;;;0.30;0.30;;;23.00;89.70;;;;;;5076974;28;20224;-67
2023/09/26 16:02:01;;;;;;;0.30;0.30;;;22.90;89.90;;;;;;5075274;28;20199;-68
2023/09/26 16:04:26;;;;;;;0.30;0.20;;;22.90;90.00;;;;;;5076446;28;20181;-64
2023/09/26 16:06:52;;;;;;;0.37;0.37;;;22.90;90.10;;;;;;5076702;28;20197;-66
2023/09/26 16:09:17;;;;;;;0.30;0.30;;;22.80;90.30;;;;;;5076949;28;20226;-66
2023/09/26 16:11:43;;;;;;;0.40;0.40;;;22.80;90.10;;;;;;5076573;28;20507;-67
2023/09/26 16:14:09;;;;;;;0.33;0.33;;;22.70;90.20;;;;;;5075694;28;20215;-66
2023/09/26 16:16:34;;;;;;;0.30;0.20;;;22.70;90.10;;;;;;5076632;28;20189;-67
2023/09/26 16:19:00;;;;;;;0.60;0.60;;;22.70;90.30;;;;;;5076610;28;20596;-67
2023/09/26 16:21:26;;;;;;;0.30;0.30;;;22.60;90.50;;;;;;5074623;28;20173;-67
2023/09/26 16:23:51;;;;;;;0.30;0.30;;;22.50;90.50;;;;;;5075876;28;20212;-65
2023/09/26 16:26:17;;;;;;;0.60;0.60;;;22.50;90.30;;;;;;5076205;28;20197;-66
2023/09/26 16:28:43;;;;;;;0.30;0.30;;;22.50;90.60;;;;;;5076121;28;20227;-64
2023/09/26 16:31:08;;;;;;;0.60;0.40;;;22.40;90.60;;;;;;5076476;28;20458;-66
2023/09/26 16:33:34;;;;;;;0.40;0.40;;;22.40;90.70;;;;;;5076555;28;20504;-64
2023/09/26 16:36:00;;;;;;;0.30;0.30;;;22.30;90.70;;;;;;5075801;28;20231;-66
2023/09/26 16:38:25;;;;;;;0.30;0.30;;;22.20;91.00;;;;;;5076358;28;20171;-64
2023/09/26 16:40:51;;;;;;;0.30;0.20;;;22.10;90.70;;;;;;5076211;28;20173;-63
2023/09/26 16:43:16;;;;;;;0.30;0.30;;;22.10;90.90;;;;;;5075864;28;20173;-66
2023/09/26 16:45:42;;;;;;;0.30;0.20;;;22.00;90.90;;;;;;5075517;28;20198;-64
2023/09/26 16:48:08;;;;;;;0.33;0.30;;;21.90;91.00;;;;;;5075606;28;20259;-62
2023/09/26 16:50:34;;;;;;;0.60;0.60;;;21.80;91.50;;;;;;5075346;28;20235;-64